Morton, Wyoming
Current Conditions -  °F | °C
As of 10:53 PM on Friday 24 Oct 2014 (Local Time) from KLND Reporting Station
Clear Clear  
Wind Chill: 55°   Ceiling: Unl
Heat Index: 55°   Visibility: 10mi
Dew Point: 20°   Wind: 0mph
Humidity: 25%   Direction: NA
Pressure: 30.15"   Gusts: NA
Location:  43.1005°N, 108.934°W
Report Text: KLND 250453Z AUTO 00000KT 10SM CLR 13/M07 A3015 RMK AO2 SLP170 T01281067 TSNO
Loading
Personal Weather Stations






























Interactive Weather Map
Tropical Storm Tracking
New forecast layout! Learn more

10-Day Weather Forecast

Advertisements
Track Severe Weather on mobile